Time;durP1;ratioP1;P1;durP2;ratioP2;P2;SDS_P1;SDS_P2;PMS_P1;PMS_P2;Temp;Humidity;BMP_temperature;BMP_pressure;BME280_temperature;BME280_humidity;BME280_pressure;Samples;Min_cycle;Max_cycle;Signal;HPM_P1;HPM_P2
2023/12/12 00:02:21;;;;;;;43.90;21.08;;;8.10;99.90;;;;;;5113202;28;20027;-70
2023/12/12 00:04:47;;;;;;;51.38;21.33;;;;;;;;;;5113502;28;20066;-71
2023/12/12 00:07:13;;;;;;;48.47;20.23;;;;;;;;;;5113566;28;20031;-71
2023/12/12 00:09:39;;;;;;;44.08;20.95;;;8.20;99.90;;;;;;5113504;28;20028;-72
2023/12/12 00:12:05;;;;;;;49.00;21.77;;;8.20;99.90;;;;;;5113680;28;20051;-71
2023/12/12 00:14:30;;;;;;;54.80;21.30;;;8.30;99.90;;;;;;5113457;28;20477;-71
2023/12/12 00:16:56;;;;;;;55.22;21.77;;;8.20;99.90;;;;;;5113436;28;20114;-70
2023/12/12 00:19:21;;;;;;;56.58;23.38;;;8.20;99.90;;;;;;5113388;28;20031;-71
2023/12/12 00:21:47;;;;;;;49.53;21.85;;;8.30;99.90;;;;;;5113377;28;20080;-71
2023/12/12 00:24:12;;;;;;;48.50;21.17;;;8.20;99.90;;;;;;5113302;28;20028;-71
2023/12/12 00:26:38;;;;;;;44.28;21.15;;;8.30;99.90;;;;;;5113059;28;20024;-70
2023/12/12 00:29:03;;;;;;;49.45;20.42;;;8.20;99.90;;;;;;5113091;28;20452;-71
2023/12/12 00:31:30;;;;;;;49.90;20.88;;;8.20;99.90;;;;;;5113338;28;20023;-71
2023/12/12 00:33:55;;;;;;;46.45;20.20;;;8.20;99.90;;;;;;5113396;28;20016;-72
2023/12/12 00:36:21;;;;;;;48.22;19.45;;;8.20;99.90;;;;;;5113160;28;20058;-71
2023/12/12 00:38:46;;;;;;;46.80;19.10;;;8.30;99.90;;;;;;5113325;28;20027;-72
2023/12/12 00:41:12;;;;;;;41.22;18.65;;;8.20;99.90;;;;;;5113360;28;20081;-72
2023/12/12 00:43:40;;;;;;;43.50;18.48;;;8.20;99.90;;;;;;5113278;28;20059;-71
2023/12/12 00:46:05;;;;;;;43.83;18.05;;;8.20;99.90;;;;;;5116865;28;20028;-71
2023/12/12 00:48:31;;;;;;;39.67;16.63;;;8.20;99.90;;;;;;5116603;28;20111;-72
2023/12/12 00:50:56;;;;;;;42.85;17.33;;;8.20;99.90;;;;;;5116870;28;20023;-72
2023/12/12 00:53:22;;;;;;;41.58;16.52;;;8.20;99.90;;;;;;5116844;28;20084;-72
2023/12/12 00:55:48;;;;;;;38.47;16.45;;;8.20;99.90;;;;;;5116639;28;20023;-71
2023/12/12 00:58:13;;;;;;;51.08;16.50;;;8.20;99.90;;;;;;5116831;28;20118;-71
2023/12/12 01:00:39;;;;;;;43.58;16.38;;;8.20;99.90;;;;;;5116781;28;20027;-71
2023/12/12 01:03:04;;;;;;;39.08;15.55;;;8.20;99.90;;;;;;5116381;28;20027;-72
2023/12/12 01:05:30;;;;;;;40.10;14.75;;;8.20;99.90;;;;;;5116349;28;20054;-72
2023/12/12 01:07:55;;;;;;;37.88;14.00;;;8.10;99.90;;;;;;5116496;28;20031;-71
2023/12/12 01:10:21;;;;;;;35.17;15.07;;;8.10;99.90;;;;;;5116542;28;20028;-71
2023/12/12 01:12:47;;;;;;;37.63;14.98;;;8.10;99.90;;;;;;5116055;28;20027;-71
2023/12/12 01:15:12;;;;;;;41.10;13.90;;;8.10;99.90;;;;;;5116572;28;20030;-71
2023/12/12 01:17:38;;;;;;;41.22;14.70;;;8.10;99.90;;;;;;5116508;28;20027;-71
2023/12/12 01:20:07;;;;;;;38.20;15.02;;;8.10;99.90;;;;;;5116580;28;20039;-71
2023/12/12 01:22:33;;;;;;;39.45;13.95;;;8.10;99.90;;;;;;5116402;28;20469;-71
2023/12/12 01:24:58;;;;;;;40.13;13.63;;;8.10;99.90;;;;;;5115654;28;20019;-71
2023/12/12 01:27:24;;;;;;;34.70;13.68;;;8.10;99.90;;;;;;5116074;28;20066;-72
2023/12/12 01:29:49;;;;;;;41.38;14.23;;;8.00;99.90;;;;;;5116173;28;20019;-72
2023/12/12 01:32:15;;;;;;;32.30;12.88;;;8.00;99.90;;;;;;5116173;28;20473;-71
2023/12/12 01:34:41;;;;;;;31.92;13.30;;;8.10;99.90;;;;;;5115575;28;20031;-72
2023/12/12 01:37:06;;;;;;;34.03;13.48;;;8.00;99.90;;;;;;5115675;28;20051;-71
2023/12/12 01:39:31;;;;;;;33.50;12.85;;;8.10;99.90;;;;;;5115841;28;20035;-71
2023/12/12 01:41:57;;;;;;;30.58;12.02;;;8.10;99.90;;;;;;5115783;28;20032;-71
2023/12/12 01:44:22;;;;;;;28.20;12.68;;;8.00;99.90;;;;;;5115643;28;20023;-71
2023/12/12 01:46:50;;;;;;;32.33;12.23;;;8.10;99.90;;;;;;5115767;28;20034;-71
2023/12/12 01:49:17;;;;;;;26.70;12.27;;;8.00;99.90;;;;;;5115783;28;20434;-71
2023/12/12 01:51:45;;;;;;;26.33;12.45;;;8.00;99.90;;;;;;5115827;28;20107;-71
2023/12/12 01:54:12;;;;;;;30.20;12.77;;;8.00;99.90;;;;;;5115801;28;20030;-71
2023/12/12 01:56:38;;;;;;;29.42;11.82;;;8.00;99.90;;;;;;5115616;28;20042;-71
2023/12/12 01:59:04;;;;;;;25.23;10.48;;;8.00;99.90;;;;;;5115629;28;20027;-71
2023/12/12 02:01:30;;;;;;;31.88;12.27;;;8.00;99.90;;;;;;5115351;28;20389;-72
2023/12/12 02:03:57;;;;;;;28.35;10.10;;;8.00;99.90;;;;;;5115417;28;20221;-73
2023/12/12 02:06:23;;;;;;;25.73;10.90;;;8.10;99.90;;;;;;5114972;28;20035;-71
2023/12/12 02:08:49;;;;;;;35.28;10.90;;;8.00;99.90;;;;;;5115399;28;20024;-72
2023/12/12 02:11:16;;;;;;;33.05;10.68;;;8.10;99.90;;;;;;5115266;28;20469;-72
2023/12/12 02:13:42;;;;;;;27.05;10.70;;;8.00;99.90;;;;;;5114884;28;20023;-71
2023/12/12 02:16:08;;;;;;;27.58;10.38;;;8.00;99.90;;;;;;5115325;28;20024;-71
2023/12/12 02:18:34;;;;;;;29.80;10.18;;;8.00;99.90;;;;;;5115293;28;20019;-72
2023/12/12 02:21:00;;;;;;;32.38;10.90;;;8.00;99.90;;;;;;5115108;28;20032;-71
2023/12/12 02:23:28;;;;;;;25.75;10.02;;;8.00;99.90;;;;;;5115068;28;20028;-71
2023/12/12 02:25:54;;;;;;;19.33;8.98;;;8.00;99.90;;;;;;5114603;28;20058;-71
2023/12/12 02:28:20;;;;;;;24.80;9.52;;;8.00;99.90;;;;;;5114965;28;20031;-71
2023/12/12 02:30:45;;;;;;;26.33;9.60;;;8.00;99.90;;;;;;5114751;28;20023;-71
2023/12/12 02:33:11;;;;;;;26.27;9.05;;;8.00;99.90;;;;;;5115014;28;20020;-72
2023/12/12 02:35:37;;;;;;;20.85;8.65;;;8.00;99.90;;;;;;5114912;28;20036;-71
2023/12/12 02:38:02;;;;;;;24.40;8.55;;;7.90;99.90;;;;;;5114485;28;20131;-71
2023/12/12 02:40:28;;;;;;;25.38;8.50;;;7.90;99.90;;;;;;5114346;28;20423;-71
2023/12/12 02:42:53;;;;;;;22.63;8.50;;;8.00;99.90;;;;;;5114707;28;20118;-72
2023/12/12 02:45:19;;;;;;;20.23;8.38;;;7.90;99.90;;;;;;5114498;28;20102;-71
2023/12/12 02:47:44;;;;;;;23.58;8.02;;;7.90;99.90;;;;;;5114615;28;20077;-71
2023/12/12 02:50:10;;;;;;;19.38;7.18;;;7.90;99.90;;;;;;5114706;28;20102;-71
2023/12/12 02:52:36;;;;;;;17.02;7.30;;;7.90;99.90;;;;;;5114432;28;20031;-71
2023/12/12 02:55:01;;;;;;;22.95;8.10;;;7.90;99.90;;;;;;5114532;28;20034;-72
2023/12/12 02:57:27;;;;;;;22.80;7.60;;;7.90;99.90;;;;;;5114503;28;20543;-72
2023/12/12 02:59:52;;;;;;;17.38;7.22;;;7.80;99.90;;;;;;5114470;28;20023;-72
2023/12/12 03:02:18;;;;;;;21.27;8.10;;;7.90;99.90;;;;;;5114286;28;20088;-72
2023/12/12 03:04:44;;;;;;;18.17;7.32;;;7.80;99.90;;;;;;5114216;28;20024;-71
2023/12/12 03:07:10;;;;;;;20.65;6.93;;;7.90;99.90;;;;;;5113982;28;20455;-71
2023/12/12 03:09:38;;;;;;;19.15;6.53;;;;;;;;;;5114443;28;20107;-72
2023/12/12 03:12:04;;;;;;;24.23;6.95;;;7.90;99.90;;;;;;5114511;28;20538;-71
2023/12/12 03:14:30;;;;;;;24.02;7.75;;;7.90;99.90;;;;;;5114154;28;20036;-71
2023/12/12 03:16:56;;;;;;;18.52;5.95;;;7.90;99.90;;;;;;5114202;28;20040;-72
2023/12/12 03:19:22;;;;;;;15.38;5.80;;;7.90;99.90;;;;;;5114189;28;20089;-72
2023/12/12 03:21:49;;;;;;;20.90;6.78;;;;;;;;;;5114009;28;20519;-71
2023/12/12 03:24:17;;;;;;;21.13;6.57;;;;;;;;;;5113974;28;20550;-72
2023/12/12 03:26:43;;;;;;;18.38;6.03;;;;;;;;;;5113660;28;20023;-71
2023/12/12 03:29:10;;;;;;;14.05;6.60;;;;;;;;;;5114061;28;20020;-71
2023/12/12 03:31:39;;;;;;;21.15;6.05;;;;;;;;;;5114049;28;20023;-71
2023/12/12 03:34:05;;;;;;;18.23;6.32;;;7.80;99.90;;;;;;5114051;28;20469;-72
2023/12/12 03:36:33;;;;;;;18.45;5.97;;;;;;;;;;5113691;28;20516;-71
2023/12/12 03:39:01;;;;;;;15.98;5.22;;;;;;;;;;5113482;28;20032;-71
2023/12/12 03:41:30;;;;;;;24.40;6.57;;;;;;;;;;5113744;28;20481;-72
2023/12/12 03:43:58;;;;;;;16.65;6.18;;;;;;;;;;5113763;28;20024;-71
2023/12/12 03:46:25;;;;;;;13.38;5.97;;;;;;;;;;5113845;28;20388;-71
2023/12/12 03:48:52;;;;;;;21.65;6.28;;;;;;;;;;5113804;28;20019;-71
2023/12/12 03:51:19;;;;;;;19.95;6.30;;;;;;;;;;5113811;28;20473;-71
2023/12/12 03:53:47;;;;;;;18.38;6.57;;;;;;;;;;5113717;28;20027;-71
2023/12/12 03:56:14;;;;;;;16.27;6.00;;;;;;;;;;5113800;28;20511;-71
2023/12/12 03:58:42;;;;;;;20.27;6.15;;;;;;;;;;5113672;28;20392;-72
2023/12/12 04:01:10;;;;;;;13.25;5.13;;;;;;;;;;5113344;28;20030;-71
2023/12/12 04:03:38;;;;;;;13.18;5.43;;;;;;;;;;5113574;28;20370;-72
2023/12/12 04:06:06;;;;;;;11.65;6.03;;;;;;;;;;5113254;28;20077;-72
2023/12/12 04:08:33;;;;;;;15.38;6.13;;;;;;;;;;5113459;28;20102;-73
2023/12/12 04:11:01;;;;;;;17.08;5.75;;;;;;;;;;5113512;28;20055;-72
2023/12/12 04:13:29;;;;;;;18.98;6.35;;;;;;;;;;5113450;28;20103;-72
2023/12/12 04:15:55;;;;;;;21.55;6.55;;;;;;;;;;5113542;28;20110;-71
2023/12/12 04:18:22;;;;;;;21.10;6.05;;;;;;;;;;5113446;28;20546;-71
2023/12/12 04:20:49;;;;;;;16.50;5.43;;;;;;;;;;5116728;28;20032;-72
2023/12/12 04:23:16;;;;;;;14.40;5.10;;;;;;;;;;5117294;28;20082;-71
2023/12/12 04:25:43;;;;;;;16.02;6.22;;;;;;;;;;5117143;28;20074;-72
2023/12/12 04:28:10;;;;;;;11.18;4.68;;;;;;;;;;5117457;28;20103;-72
2023/12/12 04:30:37;;;;;;;18.58;5.63;;;;;;;;;;5117421;28;20073;-71
2023/12/12 04:33:04;;;;;;;14.38;5.25;;;;;;;;;;5117225;28;20059;-71
2023/12/12 04:35:32;;;;;;;15.60;5.13;;;;;;;;;;5117197;28;20059;-71
2023/12/12 04:37:59;;;;;;;16.00;5.72;;;;;;;;;;5116838;28;20056;-71
2023/12/12 04:40:28;;;;;;;18.20;6.25;;;;;;;;;;5116987;28;20485;-72
2023/12/12 04:42:55;;;;;;;13.57;5.13;;;;;;;;;;5116656;28;20077;-72
2023/12/12 04:45:22;;;;;;;8.90;4.65;;;;;;;;;;5116879;28;20485;-72
2023/12/12 04:47:49;;;;;;;16.08;5.50;;;;;;;;;;5117012;28;20481;-72
2023/12/12 04:50:16;;;;;;;13.00;5.35;;;;;;;;;;5116976;28;20081;-72
2023/12/12 04:52:41;;;;;;;13.77;5.85;;;6.80;99.90;;;;;;5116977;28;20031;-72
2023/12/12 04:55:07;;;;;;;11.85;4.90;;;6.70;99.90;;;;;;5116890;28;20031;-71
2023/12/12 04:57:32;;;;;;;13.70;4.85;;;6.50;99.90;;;;;;5116414;28;20043;-71
2023/12/12 04:59:58;;;;;;;12.32;4.82;;;6.40;99.90;;;;;;5116651;28;20025;-71
2023/12/12 05:02:23;;;;;;;14.20;5.25;;;6.50;99.90;;;;;;5116834;28;20031;-71
2023/12/12 05:04:49;;;;;;;17.17;5.43;;;6.30;99.90;;;;;;5116559;28;20530;-71
2023/12/12 05:07:16;;;;;;;16.27;5.22;;;6.20;99.90;;;;;;5116465;28;20023;-72
2023/12/12 05:09:42;;;;;;;11.85;5.10;;;5.80;99.90;;;;;;5116487;28;20064;-72
2023/12/12 05:12:08;;;;;;;21.73;5.25;;;5.80;99.90;;;;;;5116694;28;20393;-71
2023/12/12 05:14:34;;;;;;;17.00;5.65;;;5.70;99.90;;;;;;5116473;28;20588;-72
2023/12/12 05:16:59;;;;;;;12.68;4.97;;;5.60;99.90;;;;;;5116266;28;20102;-71
2023/12/12 05:19:25;;;;;;;12.07;4.80;;;5.60;99.90;;;;;;5116420;28;20122;-71
2023/12/12 05:21:50;;;;;;;13.52;5.22;;;5.70;99.90;;;;;;5115859;28;20503;-71
2023/12/12 05:24:16;;;;;;;17.17;5.43;;;5.40;99.90;;;;;;5116244;28;20031;-71
2023/12/12 05:26:41;;;;;;;15.98;5.55;;;5.10;99.90;;;;;;5115977;28;20020;-71
2023/12/12 05:29:07;;;;;;;16.80;6.38;;;5.20;99.90;;;;;;5115941;28;20028;-71
2023/12/12 05:31:32;;;;;;;19.17;6.70;;;5.30;99.90;;;;;;5115817;28;20076;-71
2023/12/12 05:33:58;;;;;;;19.00;6.13;;;5.00;99.90;;;;;;5115730;28;20023;-71
2023/12/12 05:36:24;;;;;;;20.10;6.47;;;5.10;99.90;;;;;;5115906;28;20122;-71
2023/12/12 05:38:52;;;;;;;19.83;6.65;;;;;;;;;;5115587;28;20389;-71
2023/12/12 05:41:18;;;;;;;17.58;6.18;;;;;;;;;;5115969;28;20032;-71
2023/12/12 05:43:44;;;;;;;14.80;5.80;;;;;;;;;;5115971;28;20388;-71
2023/12/12 05:46:11;;;;;;;14.65;5.63;;;;;;;;;;5115763;28;20147;-71
2023/12/12 05:48:37;;;;;;;15.20;5.40;;;;;;;;;;5115735;28;20058;-71
2023/12/12 05:51:03;;;;;;;15.25;5.82;;;;;;;;;;5115801;28;20474;-71
2023/12/12 05:53:29;;;;;;;18.90;5.47;;;;;;;;;;5115716;28;20393;-71
2023/12/12 05:55:56;;;;;;;22.70;6.75;;;;;;;;;;5115677;28;20032;-71
2023/12/12 05:58:22;;;;;;;16.35;6.18;;;;;;;;;;5115670;28;20050;-70
2023/12/12 06:00:51;;;;;;;21.55;7.13;;;;;;;;;;5115613;28;20032;-70
2023/12/12 06:03:18;;;;;;;13.75;6.65;;;;;;;;;;5115555;28;20504;-70
2023/12/12 06:05:44;;;;;;;17.27;6.35;;;;;;;;;;5115377;28;20028;-70
2023/12/12 06:08:11;;;;;;;16.98;6.28;;;4.60;99.90;;;;;;5115319;28;20091;-70
2023/12/12 06:10:37;;;;;;;15.88;6.05;;;;;;;;;;5115161;28;20019;-70
2023/12/12 06:13:04;;;;;;;14.38;6.40;;;;;;;;;;5115315;28;20113;-70
2023/12/12 06:15:30;;;;;;;15.20;6.13;;;;;;;;;;5115310;28;20504;-71
2023/12/12 06:17:56;;;;;;;17.13;7.57;;;;;;;;;;5115192;28;20028;-71
2023/12/12 06:20:23;;;;;;;17.90;7.00;;;;;;;;;;5114945;28;20030;-71
2023/12/12 06:22:49;;;;;;;19.48;6.20;;;;;;;;;;5115024;28;20023;-71
2023/12/12 06:25:15;;;;;;;13.27;6.53;;;;;;;;;;5115000;28;20042;-71
2023/12/12 06:27:41;;;;;;;23.00;7.05;;;;;;;;;;5115125;28;20031;-70
2023/12/12 06:30:07;;;;;;;20.42;7.38;;;;;;;;;;5114475;28;20022;-71
2023/12/12 06:32:33;;;;;;;16.50;6.47;;;;;;;;;;5115038;28;20024;-71
2023/12/12 06:34:59;;;;;;;16.80;7.47;;;;;;;;;;5114808;28;20035;-71
2023/12/12 06:37:25;;;;;;;19.48;7.20;;;;;;;;;;5114363;28;20067;-72
2023/12/12 06:39:52;;;;;;;15.00;8.27;;;;;;;;;;5108079;28;20063;-70
2023/12/12 06:42:18;;;;;;;25.42;9.40;;;;;;;;;;5108911;28;20392;-70
2023/12/12 06:44:44;;;;;;;27.23;11.30;;;4.60;99.90;;;;;;5103748;28;20019;-70
2023/12/12 06:47:10;;;;;;;36.45;12.98;;;;;;;;;;5104791;28;20055;-70
2023/12/12 06:49:35;;;;;;;36.22;14.07;;;4.80;99.90;;;;;;5103402;28;20031;-70
2023/12/12 06:52:03;;;;;;;31.48;12.77;;;5.10;99.90;;;;;;5101460;28;20028;-70
2023/12/12 06:54:28;;;;;;;31.30;13.70;;;5.10;99.90;;;;;;5100236;28;20055;-70
2023/12/12 06:56:54;;;;;;;33.83;14.20;;;5.10;99.90;;;;;;5105048;28;20058;-70
2023/12/12 06:59:20;;;;;;;31.02;15.73;;;5.10;99.90;;;;;;5095917;28;20020;-71
2023/12/12 07:01:45;;;;;;;38.40;18.73;;;5.10;99.90;;;;;;5093889;28;20028;-71
2023/12/12 07:04:11;;;;;;;29.40;12.07;;;5.10;99.90;;;;;;5100979;28;20050;-71
2023/12/12 07:06:36;;;;;;;19.00;10.27;;;5.00;99.90;;;;;;5104149;28;20381;-70
2023/12/12 07:09:02;;;;;;;29.70;11.70;;;5.00;99.90;;;;;;5103592;28;20144;-71
2023/12/12 07:11:28;;;;;;;33.50;13.63;;;5.00;99.90;;;;;;5101150;28;20073;-71
2023/12/12 07:13:53;;;;;;;24.13;10.30;;;4.90;99.90;;;;;;5101573;28;20020;-71
2023/12/12 07:16:20;;;;;;;27.75;10.70;;;5.10;99.90;;;;;;5101220;28;20028;-71
2023/12/12 07:18:46;;;;;;;35.15;11.38;;;5.20;99.90;;;;;;5098176;28;20023;-71
2023/12/12 07:21:14;;;;;;;35.72;11.25;;;5.40;99.90;;;;;;5111996;28;20031;-71
2023/12/12 07:23:40;;;;;;;35.28;13.15;;;5.50;99.90;;;;;;5101913;28;20867;-71
2023/12/12 07:26:06;;;;;;;32.90;11.10;;;5.50;99.90;;;;;;5101347;28;20063;-71
2023/12/12 07:28:31;;;;;;;26.85;11.25;;;5.50;99.90;;;;;;5107249;28;20115;-72
2023/12/12 07:30:57;;;;;;;26.25;9.98;;;5.40;99.90;;;;;;5099349;28;20031;-71
2023/12/12 07:33:22;;;;;;;22.60;9.68;;;5.40;99.90;;;;;;5093813;28;20023;-72
2023/12/12 07:35:48;;;;;;;34.72;10.98;;;5.50;99.90;;;;;;5092722;28;20039;-72
2023/12/12 07:38:13;;;;;;;25.02;9.63;;;5.60;99.90;;;;;;5100521;28;20043;-71
2023/12/12 07:40:39;;;;;;;22.13;9.70;;;5.70;99.90;;;;;;5097428;28;20043;-71
2023/12/12 07:43:04;;;;;;;20.85;8.77;;;5.70;99.90;;;;;;5100484;28;20392;-71
2023/12/12 07:45:30;;;;;;;27.50;9.90;;;5.70;99.90;;;;;;5099322;28;20031;-71
2023/12/12 07:47:55;;;;;;;34.33;10.23;;;5.70;99.90;;;;;;5093655;28;20051;-71
2023/12/12 07:50:21;;;;;;;32.63;10.68;;;5.80;99.90;;;;;;5100744;28;20016;-71
2023/12/12 07:52:47;;;;;;;40.28;11.52;;;5.90;99.90;;;;;;5101635;28;20051;-71
2023/12/12 07:55:13;;;;;;;41.35;12.70;;;6.00;99.90;;;;;;5108741;28;20559;-72
2023/12/12 07:57:38;;;;;;;44.15;13.30;;;6.20;99.90;;;;;;5107483;28;20024;-72
2023/12/12 08:00:09;;;;;;;42.47;13.95;;;6.30;99.90;;;;;;5106878;28;20035;-71
2023/12/12 08:02:35;;;;;;;39.70;13.15;;;6.40;99.90;;;;;;5105262;28;20107;-71
2023/12/12 08:05:01;;;;;;;45.88;13.63;;;6.50;99.90;;;;;;5108487;28;20123;-72
2023/12/12 08:07:26;;;;;;;47.00;15.90;;;6.60;99.90;;;;;;5100749;28;20036;-73
2023/12/12 08:09:52;;;;;;;48.00;14.90;;;6.70;99.90;;;;;;5101804;28;20019;-72
2023/12/12 08:12:17;;;;;;;41.95;13.82;;;6.90;99.90;;;;;;5103362;28;20483;-71
2023/12/12 08:14:43;;;;;;;32.28;13.05;;;7.40;99.90;;;;;;5094986;28;20068;-71
2023/12/12 08:17:09;;;;;;;39.20;12.70;;;7.60;99.90;;;;;;5101813;28;20028;-72
2023/12/12 08:19:34;;;;;;;40.05;12.90;;;7.60;99.90;;;;;;5102934;28;20036;-72
2023/12/12 08:22:00;;;;;;;32.35;11.27;;;7.60;99.90;;;;;;5099477;28;20458;-71
2023/12/12 08:24:25;;;;;;;39.38;13.15;;;8.00;99.90;;;;;;5093339;28;20047;-71
2023/12/12 08:26:51;;;;;;;40.78;12.35;;;8.70;99.90;;;;;;5106722;28;20035;-70
2023/12/12 08:29:16;;;;;;;36.17;13.30;;;9.20;99.90;;;;;;5100606;28;20024;-71
2023/12/12 08:31:42;;;;;;;24.27;10.15;;;9.30;99.90;;;;;;5094810;28;20274;-71
2023/12/12 08:34:08;;;;;;;26.05;9.73;;;9.30;99.90;;;;;;5094497;28;20036;-71
2023/12/12 08:36:37;;;;;;;29.60;10.35;;;9.10;99.90;;;;;;5096652;28;20205;-72
2023/12/12 08:39:03;;;;;;;29.58;8.80;;;8.80;99.90;;;;;;5092276;28;20417;-71
2023/12/12 08:41:30;;;;;;;38.10;10.95;;;8.60;99.90;;;;;;5096261;28;20032;-71
2023/12/12 08:43:57;;;;;;;32.72;9.60;;;8.50;99.90;;;;;;5100824;28;20050;-72
2023/12/12 08:46:26;;;;;;;24.88;9.30;;;8.30;99.90;;;;;;5100251;28;20036;-71
2023/12/12 08:48:53;;;;;;;24.25;9.27;;;8.30;99.90;;;;;;5106442;28;20027;-72
2023/12/12 08:51:18;;;;;;;21.52;8.75;;;8.30;99.90;;;;;;5099635;28;20035;-71
2023/12/12 08:53:44;;;;;;;33.15;10.60;;;8.20;99.90;;;;;;5111562;28;20397;-71
2023/12/12 08:56:14;;;;;;;30.30;10.63;;;8.20;99.90;;;;;;5110240;28;20028;-72
2023/12/12 08:58:40;;;;;;;33.55;10.57;;;8.20;99.90;;;;;;5104612;28;20047;-71
2023/12/12 09:01:06;;;;;;;31.25;10.68;;;8.20;99.90;;;;;;5102264;28;20118;-71
2023/12/12 09:03:31;;;;;;;40.22;11.55;;;8.30;99.90;;;;;;5107318;28;20028;-73
2023/12/12 09:05:57;;;;;;;32.30;10.73;;;8.40;99.90;;;;;;5098240;28;20028;-72
2023/12/12 09:08:22;;;;;;;30.38;11.25;;;8.40;99.90;;;;;;5102249;28;20055;-71
2023/12/12 09:10:48;;;;;;;34.38;10.18;;;8.50;99.90;;;;;;5103630;28;20028;-71
2023/12/12 09:13:14;;;;;;;27.55;10.25;;;8.60;99.90;;;;;;5106738;28;20114;-71
2023/12/12 09:15:39;;;;;;;30.92;10.65;;;8.70;99.90;;;;;;5103560;28;20139;-71
2023/12/12 09:18:05;;;;;;;24.85;10.18;;;9.00;99.90;;;;;;5108685;28;20031;-70
2023/12/12 09:20:30;;;;;;;25.33;11.80;;;8.80;99.90;;;;;;5106737;28;20027;-70
2023/12/12 09:22:56;;;;;;;26.73;11.23;;;8.90;99.90;;;;;;5102407;28;20074;-70
2023/12/12 09:25:21;;;;;;;25.30;9.70;;;9.00;99.90;;;;;;5100191;28;20031;-70
2023/12/12 09:27:47;;;;;;;31.50;9.45;;;9.10;99.90;;;;;;5105781;28;20040;-70
2023/12/12 09:30:12;;;;;;;30.10;9.35;;;9.20;99.90;;;;;;5100387;28;20035;-69
2023/12/12 09:32:38;;;;;;;32.10;9.48;;;9.30;99.90;;;;;;5107093;28;20485;-70
2023/12/12 09:35:04;;;;;;;29.50;8.90;;;9.40;99.90;;;;;;5112401;28;20028;-69
2023/12/12 09:37:29;;;;;;;22.13;8.27;;;9.60;99.90;;;;;;5098299;28;20083;-69
2023/12/12 09:39:55;;;;;;;27.67;8.60;;;9.70;99.90;;;;;;5115793;28;20421;-70
2023/12/12 09:42:23;;;;;;;32.38;8.18;;;10.00;99.90;;;;;;5113220;28;20393;-71
2023/12/12 09:44:59;;;;;;;31.15;9.45;;;10.00;99.90;;;;;;5108039;28;20508;-69
2023/12/12 09:47:27;;;;;;;28.55;8.23;;;10.40;99.90;;;;;;5110724;28;20024;-70
2023/12/12 09:49:55;;;;;;;23.45;7.32;;;;;;;;;;5095244;28;20032;-70
2023/12/12 09:52:24;;;;;;;21.52;6.75;;;11.90;99.90;;;;;;5109532;28;20016;-70
2023/12/12 09:54:53;;;;;;;21.67;7.35;;;;;;;;;;5102521;28;20428;-71
2023/12/12 09:57:21;;;;;;;21.75;6.68;;;;;;;;;;5106613;28;20024;-71
2023/12/12 09:59:47;;;;;;;22.30;6.18;;;;;;;;;;5109758;28;20411;-70
2023/12/12 10:02:15;;;;;;;16.35;5.63;;;;;;;;;;5104342;28;20032;-70
2023/12/12 10:04:42;;;;;;;20.73;6.65;;;;;;;;;;5114794;28;20019;-70
2023/12/12 10:07:08;;;;;;;24.58;6.28;;;15.80;99.90;;;;;;5107758;28;20028;-70
2023/12/12 10:09:34;;;;;;;18.77;5.57;;;16.50;49.80;;;;;;5101329;28;20051;-70
2023/12/12 10:11:59;;;;;;;16.60;5.13;;;16.60;1.00;;;;;;5096572;28;20024;-72
2023/12/12 10:14:43;;;;;;;21.92;5.60;;;15.90;99.90;;;;;;5106721;28;20027;-72
2023/12/12 10:17:11;;;;;;;20.63;5.18;;;16.20;99.90;;;;;;5109638;28;20023;-73
2023/12/12 10:19:38;;;;;;;20.80;4.97;;;16.90;1.00;;;;;;5110456;28;20109;-72
2023/12/12 10:22:05;;;;;;;19.63;5.40;;;17.20;1.00;;;;;;5109499;28;20110;-72
2023/12/12 10:24:31;;;;;;;18.63;5.53;;;15.90;99.90;;;;;;5111737;28;20035;-72
2023/12/12 10:26:56;;;;;;;17.42;5.18;;;15.20;99.90;;;;;;5110079;28;20177;-72
2023/12/12 10:29:23;;;;;;;19.38;5.00;;;15.10;99.90;;;;;;5111477;28;20027;-72
2023/12/12 10:31:48;;;;;;;25.08;5.45;;;15.20;1.00;;;;;;5102516;28;20423;-72
2023/12/12 10:34:17;;;;;;;18.92;4.68;;;15.10;99.90;;;;;;5109576;28;20035;-72
2023/12/12 10:36:42;;;;;;;19.50;5.10;;;14.30;99.90;;;;;;5104177;28;20048;-72
2023/12/12 10:39:14;;;;;;;22.73;4.90;;;14.40;99.90;;;;;;5105888;28;20020;-72
2023/12/12 10:41:40;;;;;;;20.02;4.60;;;14.50;99.90;;;;;;5104700;28;20024;-72
2023/12/12 10:44:08;;;;;;;22.92;5.00;;;14.60;99.90;;;;;;5096711;28;20034;-72
2023/12/12 10:46:37;;;;;;;18.40;4.78;;;14.40;99.90;;;;;;5100422;28;20045;-72
2023/12/12 10:49:02;;;;;;;16.33;4.07;;;14.60;99.90;;;;;;5111052;28;20382;-72
2023/12/12 10:51:28;;;;;;;18.52;4.25;;;15.30;99.90;;;;;;5105612;28;20028;-72
2023/12/12 10:53:55;;;;;;;12.52;4.13;;;15.40;1.00;;;;;;5101871;28;20472;-72
2023/12/12 10:56:21;;;;;;;22.55;4.65;;;15.20;99.90;;;;;;5106585;28;20072;-72
2023/12/12 10:58:48;;;;;;;22.13;6.15;;;15.10;99.90;;;;;;5102912;28;20072;-72
2023/12/12 11:01:15;;;;;;;18.90;3.67;;;15.80;79.80;;;;;;5097322;28;20032;-72
2023/12/12 11:03:41;;;;;;;14.75;4.35;;;15.90;1.00;;;;;;5110428;28;20122;-73
2023/12/12 11:06:08;;;;;;;15.68;3.83;;;15.90;99.90;;;;;;5113907;28;20428;-72
2023/12/12 11:08:34;;;;;;;18.00;4.05;;;16.10;99.90;;;;;;5108455;28;20127;-72
2023/12/12 11:11:02;;;;;;;13.52;3.95;;;16.40;99.90;;;;;;5088368;28;20095;-72
2023/12/12 11:13:33;;;;;;;14.95;3.97;;;16.20;99.90;;;;;;5085881;28;20020;-72
2023/12/12 11:16:00;;;;;;;17.23;3.95;;;15.50;99.90;;;;;;5073524;28;20035;-73
2023/12/12 11:18:26;;;;;;;17.10;3.60;;;15.00;99.90;;;;;;5083006;28;20103;-72
2023/12/12 11:20:52;;;;;;;16.38;3.72;;;14.30;5.10;;;;;;5085423;28;20035;-73
2023/12/12 11:23:53;;;;;;;13.02;3.20;;;13.90;99.90;;;;;;5093955;28;20554;-72
2023/12/12 11:26:21;;;;;;;19.98;3.90;;;13.50;99.90;;;;;;5075354;28;20043;-73
2023/12/12 11:28:49;;;;;;;13.88;3.25;;;13.70;99.90;;;;;;5086445;28;20027;-72
2023/12/12 11:31:33;;;;;;;14.65;3.75;;;13.70;99.90;;;;;;5073354;28;20021;-72
2023/12/12 11:34:03;;;;;;;14.38;3.78;;;13.80;1.00;;;;;;5083630;28;20054;-71
2023/12/12 11:36:46;;;;;;;10.75;3.05;;;14.00;99.90;;;;;;5089786;28;20379;-71
2023/12/12 11:39:13;;;;;;;12.95;3.40;;;13.90;99.90;;;;;;5077108;28;20079;-72
2023/12/12 11:41:38;;;;;;;14.85;4.10;;;14.00;99.90;;;;;;5081119;28;20032;-71
2023/12/12 11:44:05;;;;;;;19.25;3.60;;;14.10;99.90;;;;;;5086266;28;20028;-72
2023/12/12 11:46:31;;;;;;;15.45;3.10;;;14.00;1.00;;;;;;5082089;28;20475;-72
2023/12/12 11:49:17;;;;;;;14.20;3.55;;;13.90;92.40;;;;;;5072905;28;20086;-71
2023/12/12 11:51:46;;;;;;;9.13;3.25;;;13.60;99.90;;;;;;5085947;28;20062;-72
2023/12/12 11:54:20;;;;;;;9.93;2.67;;;;;;;;;;5090232;28;20035;-71
2023/12/12 11:56:47;;;;;;;11.30;3.58;;;;;;;;;;5084951;28;20102;-71
2023/12/12 11:59:14;;;;;;;11.23;3.10;;;;;;;;;;5077669;28;20033;-72
2023/12/12 12:01:40;;;;;;;11.90;3.30;;;13.70;99.90;;;;;;5085924;28;20482;-72
2023/12/12 12:04:10;;;;;;;11.43;3.15;;;;;;;;;;5092174;28;20059;-72
2023/12/12 12:06:37;;;;;;;11.85;2.70;;;;;;;;;;5081860;28;20115;-72
2023/12/12 12:09:05;;;;;;;13.80;2.97;;;13.30;99.90;;;;;;5090124;28;20103;-72
2023/12/12 12:11:43;;;;;;;12.38;3.10;;;13.50;1.00;;;;;;5089610;28;20073;-72
2023/12/12 12:14:13;;;;;;;8.70;2.58;;;13.50;99.90;;;;;;5079398;28;20016;-72
2023/12/12 12:16:41;;;;;;;13.95;3.35;;;;;;;;;;5093218;28;20492;-72
2023/12/12 12:19:31;;;;;;;13.60;3.10;;;13.40;99.90;;;;;;5093053;28;20073;-72
2023/12/12 12:22:05;;;;;;;17.75;4.82;;;13.50;1.00;;;;;;5082959;28;20028;-73
2023/12/12 12:24:33;;;;;;;9.35;2.85;;;;;;;;;;5072108;28;20035;-72
2023/12/12 12:27:01;;;;;;;12.60;3.03;;;;;;;;;;5073636;28;20020;-72
2023/12/12 12:29:28;;;;;;;12.70;3.13;;;13.30;1.00;;;;;;5076348;28;20022;-72
2023/12/12 12:32:08;;;;;;;8.30;2.88;;;13.00;1.00;;;;;;5077005;28;20402;-73
2023/12/12 12:34:35;;;;;;;9.80;2.88;;;;;;;;;;5075096;28;20035;-73
2023/12/12 12:37:02;;;;;;;9.18;2.65;;;12.80;1.00;;;;;;5084630;28;20075;-72
2023/12/12 12:39:29;;;;;;;9.57;2.72;;;;;;;;;;5082290;28;20080;-72
2023/12/12 12:41:58;;;;;;;14.40;2.80;;;;;;;;;;5089174;28;20176;-73
2023/12/12 12:44:31;;;;;;;11.38;3.60;;;12.70;1.00;;;;;;5084302;28;20036;-73
2023/12/12 12:46:57;;;;;;;14.43;3.20;;;12.90;1.00;;;;;;5076124;28;20036;-73
2023/12/12 12:49:24;;;;;;;13.30;2.63;;;;;;;;;;5076113;28;20036;-73
2023/12/12 12:51:51;;;;;;;14.27;3.05;;;12.60;1.00;;;;;;5077376;28;20402;-73
2023/12/12 12:54:16;;;;;;;16.88;3.58;;;12.70;1.00;;;;;;5087242;28;20111;-73
2023/12/12 12:56:44;;;;;;;11.55;2.83;;;12.50;1.00;;;;;;5087226;28;20139;-73
2023/12/12 12:59:13;;;;;;;12.38;2.92;;;12.50;1.00;;;;;;5095062;28;20036;-73
2023/12/12 13:01:40;;;;;;;7.30;2.72;;;12.40;1.00;;;;;;5078052;28;20119;-73
2023/12/12 13:04:07;;;;;;;10.05;2.45;;;;;;;;;;5081917;28;20051;-73
2023/12/12 13:06:33;;;;;;;10.60;2.65;;;;;;;;;;5092622;28;20512;-73